createdAt,value
2017-01-12T00:00:12.351Z,3.4
2017-01-12T00:00:33.690Z,3.5
2017-01-12T00:00:55.022Z,3.4
2017-01-12T00:01:16.362Z,3.4
2017-01-12T00:01:37.694Z,3.5
2017-01-12T00:01:59.036Z,3.5
2017-01-12T00:02:20.403Z,3.5
2017-01-12T00:02:41.749Z,3.6
2017-01-12T00:03:03.077Z,3.5
2017-01-12T00:03:24.421Z,3.6
2017-01-12T00:03:45.791Z,3.6
2017-01-12T00:04:07.123Z,3.6
2017-01-12T00:04:28.478Z,3.5
2017-01-12T00:04:49.839Z,3.6
2017-01-12T00:05:11.255Z,3.5
2017-01-12T00:05:32.644Z,3.6
2017-01-12T00:05:53.986Z,3.5
2017-01-12T00:06:15.327Z,3.6
2017-01-12T00:06:36.687Z,3.6
2017-01-12T00:06:58.032Z,3.6
2017-01-12T00:07:19.381Z,3.6
2017-01-12T00:07:40.727Z,3.6
2017-01-12T00:08:02.080Z,3.6
2017-01-12T00:08:23.409Z,3.6
2017-01-12T00:08:44.776Z,3.6
2017-01-12T00:09:06.118Z,3.6
2017-01-12T00:09:27.468Z,3.5
2017-01-12T00:09:48.843Z,3.6
2017-01-12T00:10:10.214Z,3.5
2017-01-12T00:10:31.560Z,3.5
2017-01-12T00:10:52.910Z,3.4
2017-01-12T00:11:14.281Z,3.5
2017-01-12T00:11:35.660Z,3.6
2017-01-12T00:11:56.996Z,3.6
2017-01-12T00:12:18.360Z,3.6
2017-01-12T00:12:39.729Z,3.6
2017-01-12T00:13:01.082Z,3.6
2017-01-12T00:13:22.415Z,3.6
2017-01-12T00:13:43.776Z,3.5
2017-01-12T00:14:05.122Z,3.5
2017-01-12T00:14:26.499Z,3.5
2017-01-12T00:14:47.837Z,3.5
2017-01-12T00:15:09.193Z,3.5
2017-01-12T00:15:30.562Z,3.6
2017-01-12T00:15:51.904Z,3.6
2017-01-12T00:16:13.257Z,3.5
2017-01-12T00:16:34.602Z,3.5
2017-01-12T00:16:55.976Z,3.5
2017-01-12T00:17:17.325Z,3.7
2017-01-12T00:17:38.723Z,3.7
2017-01-12T00:18:00.055Z,3.7
2017-01-12T00:18:21.396Z,3.6
2017-01-12T00:18:42.799Z,3.7
2017-01-12T00:19:04.140Z,3.6
2017-01-12T00:19:25.487Z,3.5
2017-01-12T00:19:47.131Z,3.7
2017-01-12T00:20:08.464Z,3.5
2017-01-12T00:20:29.826Z,3.5
2017-01-12T00:20:51.196Z,3.6
2017-01-12T00:21:12.580Z,3.6
2017-01-12T00:21:33.911Z,3.6
2017-01-12T00:21:55.259Z,3.6
2017-01-12T00:22:16.607Z,3.5
2017-01-12T00:22:37.947Z,3.6
2017-01-12T00:22:59.293Z,3.6
2017-01-12T00:23:20.647Z,3.6
2017-01-12T00:23:41.967Z,3.6
2017-01-12T00:24:03.319Z,3.6
2017-01-12T00:24:24.676Z,3.6
2017-01-12T00:24:46.035Z,3.6
2017-01-12T00:25:07.410Z,3.6
2017-01-12T00:25:28.795Z,3.5
2017-01-12T00:25:50.130Z,3.5
2017-01-12T00:26:11.483Z,3.5
2017-01-12T00:26:32.867Z,3.5
2017-01-12T00:26:54.260Z,3.5
2017-01-12T00:27:15.622Z,3.5
2017-01-12T00:27:36.961Z,3.5
2017-01-12T00:27:58.293Z,3.5
2017-01-12T00:28:19.641Z,3.4
2017-01-12T00:28:41.009Z,3.4
2017-01-12T00:29:02.345Z,3.4
2017-01-12T00:29:23.711Z,3.3
2017-01-12T00:29:45.048Z,3.5
2017-01-12T00:30:06.417Z,3.4
2017-01-12T00:30:27.785Z,3.5
2017-01-12T00:30:49.122Z,3.4
2017-01-12T00:31:10.468Z,3.4
2017-01-12T00:31:31.812Z,3.4
2017-01-12T00:31:53.168Z,3.5
2017-01-12T00:32:14.512Z,3.4
2017-01-12T00:32:35.841Z,3.5
2017-01-12T00:32:57.193Z,3.5
2017-01-12T00:33:18.523Z,3.4
2017-01-12T00:33:39.872Z,3.4
2017-01-12T00:34:01.228Z,3.5
2017-01-12T00:34:22.561Z,3.4
2017-01-12T00:34:43.887Z,3.4
2017-01-12T00:35:05.233Z,3.5
2017-01-12T00:35:26.589Z,3.5
2017-01-12T00:35:47.919Z,3.4
2017-01-12T00:36:09.242Z,3.5
2017-01-12T00:36:30.581Z,3.4
2017-01-12T00:36:51.921Z,3.4
2017-01-12T00:37:13.266Z,3.4
2017-01-12T00:37:34.595Z,3.4
2017-01-12T00:37:55.937Z,3.4
2017-01-12T00:38:17.272Z,3.4
2017-01-12T00:38:38.619Z,3.4
2017-01-12T00:38:59.962Z,3.4
2017-01-12T00:39:21.304Z,3.5
2017-01-12T00:39:42.664Z,3.5
2017-01-12T00:40:04.029Z,3.4
2017-01-12T00:40:25.365Z,3.4
2017-01-12T00:40:46.698Z,3.4
2017-01-12T00:41:08.048Z,3.5
2017-01-12T00:41:29.387Z,3.5
2017-01-12T00:41:50.747Z,3.5
2017-01-12T00:42:12.097Z,3.6
2017-01-12T00:42:33.459Z,3.7
2017-01-12T00:42:54.800Z,3.7
2017-01-12T00:43:16.172Z,3.7
2017-01-12T00:43:37.513Z,3.7
2017-01-12T00:43:58.859Z,3.6
2017-01-12T00:44:20.200Z,3.6
2017-01-12T00:44:41.533Z,3.7
2017-01-12T00:45:02.878Z,3.6
2017-01-12T00:45:24.269Z,3.7
2017-01-12T00:45:45.612Z,3.7
2017-01-12T00:46:06.966Z,3.7
2017-01-12T00:46:28.309Z,3.7
2017-01-12T00:46:49.669Z,3.7
2017-01-12T00:47:11.005Z,3.8
2017-01-12T00:47:32.345Z,3.7
2017-01-12T00:47:53.687Z,3.6
2017-01-12T00:48:15.072Z,3.8
2017-01-12T00:48:36.419Z,3.7
2017-01-12T00:48:57.775Z,3.7
2017-01-12T00:49:19.135Z,3.7
2017-01-12T00:49:40.467Z,3.6
2017-01-12T00:50:01.820Z,3.7
2017-01-12T00:50:23.162Z,3.7
2017-01-12T00:50:44.514Z,3.7
2017-01-12T00:51:05.838Z,3.7
2017-01-12T00:51:27.241Z,3.7
2017-01-12T00:51:48.561Z,3.7
2017-01-12T00:52:09.892Z,3.6
2017-01-12T00:52:31.261Z,3.6
2017-01-12T00:52:52.597Z,3.7
2017-01-12T00:53:13.940Z,3.7
2017-01-12T00:53:35.266Z,3.8
2017-01-12T00:53:56.606Z,3.7
2017-01-12T00:54:17.964Z,3.7
2017-01-12T00:54:39.315Z,3.5
2017-01-12T00:55:00.656Z,3.5
2017-01-12T00:55:21.999Z,3.6
2017-01-12T00:55:43.347Z,3.6
2017-01-12T00:56:04.661Z,3.5
2017-01-12T00:56:26.009Z,3.6
2017-01-12T00:56:47.355Z,3.6
2017-01-12T00:57:08.711Z,3.7
2017-01-12T00:57:30.075Z,3.6
2017-01-12T00:57:51.407Z,3.6
2017-01-12T00:58:12.742Z,3.6
2017-01-12T00:58:34.072Z,3.5
2017-01-12T00:58:55.422Z,3.5
2017-01-12T00:59:16.777Z,3.5
2017-01-12T00:59:38.129Z,3.5
2017-01-12T00:59:59.500Z,3.5
2017-01-12T01:00:20.844Z,3.5
2017-01-12T01:00:42.184Z,3.6
2017-01-12T01:01:03.531Z,3.6
2017-01-12T01:01:24.886Z,3.6
2017-01-12T01:01:46.236Z,3.6
2017-01-12T01:02:07.594Z,3.6
2017-01-12T01:02:28.945Z,3.5
2017-01-12T01:02:50.323Z,3.5
2017-01-12T01:03:11.699Z,3.5
2017-01-12T01:03:33.038Z,3.5
2017-01-12T01:03:54.380Z,3.5
2017-01-12T01:04:15.725Z,3.5
2017-01-12T01:04:37.089Z,3.6
2017-01-12T01:04:58.437Z,3.5
2017-01-12T01:05:19.784Z,3.4
2017-01-12T01:05:41.139Z,3.5
2017-01-12T01:06:02.463Z,3.5
2017-01-12T01:06:23.823Z,3.5
2017-01-12T01:06:45.174Z,3.5
2017-01-12T01:07:06.563Z,3.5
2017-01-12T01:07:27.906Z,3.5
2017-01-12T01:07:49.245Z,3.5
2017-01-12T01:08:10.592Z,3.5
2017-01-12T01:08:31.947Z,3.5
2017-01-12T01:08:53.315Z,3.5
2017-01-12T01:09:14.658Z,3.5
2017-01-12T01:09:36.002Z,3.6
2017-01-12T01:09:57.343Z,3.5
2017-01-12T01:10:18.687Z,3.5
2017-01-12T01:10:40.039Z,3.5
2017-01-12T01:11:01.383Z,3.4
2017-01-12T01:11:22.734Z,3.5
2017-01-12T01:11:44.074Z,3.5
2017-01-12T01:12:05.457Z,3.5
2017-01-12T01:12:26.804Z,3.4
2017-01-12T01:12:48.207Z,3.4
2017-01-12T01:13:09.559Z,3.4
2017-01-12T01:13:30.927Z,3.4
2017-01-12T01:13:52.260Z,3.4
2017-01-12T01:14:13.618Z,3.5
2017-01-12T01:14:34.968Z,3.3
2017-01-12T01:14:56.311Z,3.4
2017-01-12T01:15:17.678Z,3.4
2017-01-12T01:15:39.022Z,3.4
2017-01-12T01:16:00.386Z,3.5
2017-01-12T01:16:21.745Z,3.5
2017-01-12T01:16:43.077Z,3.5
2017-01-12T01:17:04.470Z,3.5
2017-01-12T01:17:25.805Z,3.5
2017-01-12T01:17:47.154Z,3.6
2017-01-12T01:18:08.498Z,3.6
2017-01-12T01:18:29.853Z,3.6
2017-01-12T01:18:51.190Z,3.5
2017-01-12T01:19:12.563Z,3.5
2017-01-12T01:19:33.939Z,3.5
2017-01-12T01:19:55.310Z,3.4
2017-01-12T01:20:16.656Z,3.4
2017-01-12T01:20:38.003Z,3.4
2017-01-12T01:20:59.330Z,3.4
2017-01-12T01:21:20.686Z,3.4
2017-01-12T01:21:42.044Z,3.5
2017-01-12T01:22:03.430Z,3.4
2017-01-12T01:22:24.764Z,3.4
2017-01-12T01:22:46.117Z,3.4
2017-01-12T01:23:07.457Z,3.4
2017-01-12T01:23:28.834Z,3.5
2017-01-12T01:23:50.192Z,3.5
2017-01-12T01:24:11.579Z,3.6
2017-01-12T01:24:32.914Z,3.6
2017-01-12T01:24:54.263Z,3.6
2017-01-12T01:25:15.614Z,3.5
2017-01-12T01:25:36.965Z,3.6
2017-01-12T01:25:58.297Z,3.5
2017-01-12T01:26:19.634Z,3.5
2017-01-12T01:26:40.986Z,3.5
2017-01-12T01:27:02.349Z,3.6
2017-01-12T01:27:23.698Z,3.6
2017-01-12T01:27:45.032Z,3.7
2017-01-12T01:28:06.369Z,3.6
2017-01-12T01:28:27.718Z,3.6
2017-01-12T01:28:49.049Z,3.6
2017-01-12T01:29:10.415Z,3.6
2017-01-12T01:29:31.771Z,3.5
2017-01-12T01:29:53.118Z,3.4
2017-01-12T01:30:14.466Z,3.4
2017-01-12T01:30:35.828Z,3.5
2017-01-12T01:30:57.169Z,3.4
2017-01-12T01:31:18.504Z,3.4
2017-01-12T01:31:39.851Z,3.5
2017-01-12T01:32:01.185Z,3.4
2017-01-12T01:32:22.564Z,3.5
2017-01-12T01:32:43.902Z,3.4
2017-01-12T01:33:05.250Z,3.4
2017-01-12T01:33:26.589Z,3.4
2017-01-12T01:33:47.928Z,3.3
2017-01-12T01:34:09.270Z,3.3
2017-01-12T01:34:30.608Z,3.3
2017-01-12T01:34:51.953Z,3.2
2017-01-12T01:35:13.292Z,3.2
2017-01-12T01:35:34.633Z,3.1
2017-01-12T01:35:55.983Z,3.1
2017-01-12T01:36:17.330Z,3.2
2017-01-12T01:36:38.673Z,3.1
2017-01-12T01:37:00.011Z,3
2017-01-12T01:37:21.365Z,3
2017-01-12T01:37:42.701Z,3
2017-01-12T01:38:04.071Z,3
2017-01-12T01:38:25.410Z,2.8
2017-01-12T01:38:46.764Z,3
2017-01-12T01:39:08.106Z,2.9
2017-01-12T01:39:29.434Z,2.8
2017-01-12T01:39:50.815Z,2.8
2017-01-12T01:40:12.165Z,2.8
2017-01-12T01:40:33.514Z,2.8
2017-01-12T01:40:54.872Z,2.9
2017-01-12T01:41:16.201Z,2.8
2017-01-12T01:41:37.534Z,2.8
2017-01-12T01:41:58.885Z,2.8
2017-01-12T01:42:20.247Z,2.7
2017-01-12T01:42:41.577Z,2.7
2017-01-12T01:43:03.162Z,2.8
2017-01-12T01:43:24.500Z,2.7
2017-01-12T01:43:45.878Z,2.7
2017-01-12T01:44:07.215Z,2.6
2017-01-12T01:44:28.571Z,2.7
2017-01-12T01:44:49.926Z,2.7
2017-01-12T01:45:11.265Z,2.6
2017-01-12T01:45:32.601Z,2.7
2017-01-12T01:45:53.949Z,2.6
2017-01-12T01:46:15.331Z,2.6
2017-01-12T01:46:36.669Z,2.7
2017-01-12T01:46:57.989Z,2.6
2017-01-12T01:47:19.328Z,2.6
2017-01-12T01:47:40.664Z,2.6
2017-01-12T01:48:02.018Z,2.6
2017-01-12T01:48:23.374Z,2.7
2017-01-12T01:48:44.710Z,2.6
2017-01-12T01:49:06.055Z,2.6
2017-01-12T01:49:27.401Z,2.6
2017-01-12T01:49:48.773Z,2.6
2017-01-12T01:50:10.159Z,2.6
2017-01-12T01:50:31.530Z,2.4
2017-01-12T01:50:52.862Z,2.5
2017-01-12T01:51:14.198Z,2.4
2017-01-12T01:51:35.562Z,2.4
2017-01-12T01:51:56.884Z,2.4
2017-01-12T01:52:18.213Z,2.5
2017-01-12T01:52:39.553Z,2.5
2017-01-12T01:53:00.894Z,2.5
2017-01-12T01:53:22.237Z,2.4
2017-01-12T01:53:43.566Z,2.5
2017-01-12T01:54:04.928Z,2.4
2017-01-12T01:54:26.277Z,2.4
2017-01-12T01:54:47.614Z,2.4
2017-01-12T01:55:08.948Z,2.4
2017-01-12T01:55:30.327Z,2.4
2017-01-12T01:55:51.680Z,2.4
2017-01-12T01:56:13.024Z,2.3
2017-01-12T01:56:34.363Z,2.4
2017-01-12T01:56:55.700Z,2.4
2017-01-12T01:57:17.057Z,2.4
2017-01-12T01:57:38.393Z,2.4
2017-01-12T01:57:59.733Z,2.4
2017-01-12T01:58:21.093Z,2.4
2017-01-12T01:58:42.455Z,2.4
2017-01-12T01:59:03.816Z,2.4
2017-01-12T01:59:25.164Z,2.4
2017-01-12T01:59:46.524Z,2.5
2017-01-12T02:00:07.857Z,2.5
2017-01-12T02:00:29.189Z,2.5
2017-01-12T02:00:50.528Z,2.5
2017-01-12T02:01:11.855Z,2.5
2017-01-12T02:01:33.230Z,2.5
2017-01-12T02:01:54.579Z,2.4
2017-01-12T02:02:15.941Z,2.6
2017-01-12T02:02:37.281Z,2.6
2017-01-12T02:02:58.624Z,2.6
2017-01-12T02:03:19.958Z,2.6
2017-01-12T02:03:41.286Z,2.6
2017-01-12T02:04:02.650Z,2.6
2017-01-12T02:04:30.996Z,2.6
2017-01-12T02:04:52.338Z,2.6
2017-01-12T02:05:13.679Z,2.6
2017-01-12T02:05:35.026Z,2.5
2017-01-12T02:05:56.390Z,2.5
2017-01-12T02:06:17.766Z,2.5
2017-01-12T02:06:39.140Z,2.5
2017-01-12T02:07:00.485Z,2.4
2017-01-12T02:07:21.862Z,2.5
2017-01-12T02:07:43.204Z,2.4
2017-01-12T02:08:04.556Z,2.4
2017-01-12T02:08:25.909Z,2.5
2017-01-12T02:08:47.259Z,2.5
2017-01-12T02:09:08.613Z,2.5
2017-01-12T02:09:29.969Z,2.6
2017-01-12T02:09:51.319Z,2.6
2017-01-12T02:10:12.650Z,2.7
2017-01-12T02:10:34.020Z,2.6
2017-01-12T02:10:55.371Z,2.7
2017-01-12T02:11:16.742Z,2.8
2017-01-12T02:11:38.078Z,2.7
2017-01-12T02:11:59.449Z,2.8
2017-01-12T02:12:20.802Z,2.7
2017-01-12T02:12:42.166Z,2.7
2017-01-12T02:13:03.503Z,2.8
2017-01-12T02:13:24.849Z,2.8
2017-01-12T02:13:46.208Z,2.7
2017-01-12T02:14:07.593Z,2.7
2017-01-12T02:14:28.945Z,2.6
2017-01-12T02:14:50.306Z,2.8
2017-01-12T02:15:11.686Z,2.7
2017-01-12T02:15:33.071Z,2.6
2017-01-12T02:15:54.443Z,2.8
2017-01-12T02:16:15.794Z,2.8
2017-01-12T02:16:37.145Z,2.8
2017-01-12T02:16:58.468Z,2.8
2017-01-12T02:17:19.817Z,2.8
2017-01-12T02:17:41.153Z,2.9
2017-01-12T02:18:02.508Z,2.8
2017-01-12T02:18:23.862Z,2.8
2017-01-12T02:18:45.202Z,2.8
2017-01-12T02:19:06.543Z,2.8
2017-01-12T02:19:27.887Z,2.8
2017-01-12T02:19:49.234Z,2.8
2017-01-12T02:20:10.602Z,2.8
2017-01-12T02:20:31.970Z,2.8
2017-01-12T02:20:53.317Z,2.8
2017-01-12T02:21:14.676Z,2.8
2017-01-12T02:21:36.017Z,2.8
2017-01-12T02:21:57.347Z,2.8
2017-01-12T02:22:18.718Z,2.8
2017-01-12T02:22:40.058Z,2.8
2017-01-12T02:23:01.403Z,2.8
2017-01-12T02:23:22.746Z,2.9
2017-01-12T02:23:44.083Z,2.8
2017-01-12T02:24:05.419Z,2.8
2017-01-12T02:24:26.760Z,2.9
2017-01-12T02:24:48.107Z,2.8
2017-01-12T02:25:09.456Z,2.8
2017-01-12T02:25:30.823Z,2.9
2017-01-12T02:25:52.189Z,2.8
2017-01-12T02:26:13.538Z,2.8
2017-01-12T02:26:34.886Z,2.8
2017-01-12T02:26:56.215Z,2.8
2017-01-12T02:27:17.567Z,2.8
2017-01-12T02:27:38.890Z,2.8
2017-01-12T02:28:00.232Z,2.8
2017-01-12T02:28:21.569Z,2.8
2017-01-12T02:28:42.942Z,2.8
2017-01-12T02:29:04.270Z,2.8
2017-01-12T02:29:25.609Z,2.8
2017-01-12T02:29:46.977Z,2.9
2017-01-12T02:30:08.325Z,3
2017-01-12T02:30:29.674Z,2.8
2017-01-12T02:30:51.009Z,2.9
2017-01-12T02:31:12.353Z,2.9
2017-01-12T02:31:33.720Z,3
2017-01-12T02:31:55.061Z,2.9
2017-01-12T02:32:16.402Z,2.9
2017-01-12T02:32:37.717Z,3
2017-01-12T02:32:59.077Z,3
2017-01-12T02:33:20.410Z,3
2017-01-12T02:33:41.745Z,3.1
2017-01-12T02:34:03.079Z,3
2017-01-12T02:34:24.441Z,3.1
2017-01-12T02:34:45.774Z,3.1
2017-01-12T02:35:07.127Z,3.1
2017-01-12T02:35:28.482Z,3.1
2017-01-12T02:35:49.822Z,3.1
2017-01-12T02:36:11.165Z,3.1
2017-01-12T02:36:32.512Z,3.1
2017-01-12T02:36:53.855Z,3.1
2017-01-12T02:37:15.190Z,3.1
2017-01-12T02:37:36.518Z,3.1
2017-01-12T02:37:57.845Z,3.2
2017-01-12T02:38:19.201Z,3.1
2017-01-12T02:38:40.550Z,3.1
2017-01-12T02:39:01.897Z,3
2017-01-12T02:39:23.261Z,3
2017-01-12T02:39:44.593Z,3
2017-01-12T02:40:05.940Z,3.1
2017-01-12T02:40:27.283Z,3
2017-01-12T02:40:48.650Z,3.1
2017-01-12T02:41:10.009Z,3.1
2017-01-12T02:41:31.332Z,3
2017-01-12T02:41:52.655Z,3
2017-01-12T02:42:13.982Z,3
2017-01-12T02:42:35.327Z,3.1
2017-01-12T02:42:56.666Z,3.1
2017-01-12T02:43:18.017Z,3.1
2017-01-12T02:43:39.409Z,3.1
2017-01-12T02:44:00.733Z,3.1
2017-01-12T02:44:22.107Z,3.1
2017-01-12T02:44:43.442Z,3
2017-01-12T02:45:04.791Z,3
2017-01-12T02:45:26.124Z,3.1
2017-01-12T02:45:47.488Z,3.1
2017-01-12T02:46:08.824Z,3
2017-01-12T02:46:30.170Z,3.1
2017-01-12T02:46:51.513Z,3
2017-01-12T02:47:12.859Z,3.1
2017-01-12T02:47:34.213Z,3
2017-01-12T02:47:55.554Z,3
2017-01-12T02:48:16.927Z,3
2017-01-12T02:48:38.276Z,3
2017-01-12T02:48:59.663Z,3.1
2017-01-12T02:49:21.005Z,3
2017-01-12T02:49:42.349Z,3
2017-01-12T02:50:03.680Z,3
2017-01-12T02:50:25.019Z,3
2017-01-12T02:50:46.373Z,3
2017-01-12T02:51:07.733Z,3.1
2017-01-12T02:51:29.065Z,3.1
2017-01-12T02:51:50.400Z,3.1
2017-01-12T02:52:11.734Z,3.2
2017-01-12T02:52:33.077Z,3.2
2017-01-12T02:52:54.441Z,3.1
2017-01-12T02:53:15.767Z,3.2
2017-01-12T02:53:37.096Z,3.2
2017-01-12T02:53:58.454Z,3.2
2017-01-12T02:54:19.827Z,3.2
2017-01-12T02:54:41.197Z,3.2
2017-01-12T02:55:02.541Z,3.2
2017-01-12T02:55:23.895Z,3.1
2017-01-12T02:55:45.246Z,3.2
2017-01-12T02:56:06.591Z,3.2
2017-01-12T02:56:27.918Z,3.2
2017-01-12T02:56:49.277Z,3.1
2017-01-12T02:57:10.621Z,3.1
2017-01-12T02:57:31.954Z,3.1
2017-01-12T02:57:53.301Z,3.1
2017-01-12T02:58:14.648Z,3.1
2017-01-12T02:58:35.987Z,3.1
2017-01-12T02:58:57.334Z,3.1
2017-01-12T02:59:18.671Z,3.2
2017-01-12T02:59:40.007Z,3.1
2017-01-12T03:00:01.356Z,3.1
2017-01-12T03:00:22.705Z,3.1
2017-01-12T03:00:44.088Z,3.2
2017-01-12T03:01:05.437Z,3.1
2017-01-12T03:01:26.788Z,3.2
2017-01-12T03:01:48.146Z,3.2
2017-01-12T03:02:09.542Z,3.2
2017-01-12T03:02:30.944Z,3.2
2017-01-12T03:02:52.276Z,3.2
2017-01-12T03:03:13.622Z,3.2
2017-01-12T03:03:34.964Z,3.1
2017-01-12T03:03:56.316Z,3.2
2017-01-12T03:04:17.664Z,3.2
2017-01-12T03:04:39.059Z,3.1
2017-01-12T03:05:00.406Z,3.1
2017-01-12T03:05:21.739Z,3.1
2017-01-12T03:05:43.061Z,3.1
2017-01-12T03:06:04.413Z,3.1
2017-01-12T03:06:25.774Z,3.1
2017-01-12T03:06:47.124Z,3.2
2017-01-12T03:07:08.477Z,3.2
2017-01-12T03:07:29.830Z,3.2
2017-01-12T03:07:51.203Z,3.2
2017-01-12T03:08:12.525Z,3.1
2017-01-12T03:08:33.868Z,3.2
2017-01-12T03:08:55.224Z,3.1
2017-01-12T03:09:16.570Z,3.1
2017-01-12T03:09:37.908Z,3
2017-01-12T03:09:59.248Z,3
2017-01-12T03:10:20.595Z,3.1
2017-01-12T03:10:41.940Z,3.1
2017-01-12T03:11:03.295Z,3.2
2017-01-12T03:11:24.634Z,3.2
2017-01-12T03:11:45.983Z,3
2017-01-12T03:12:07.353Z,3
2017-01-12T03:12:28.693Z,3
2017-01-12T03:12:50.046Z,3
2017-01-12T03:13:11.386Z,3
2017-01-12T03:13:32.742Z,3
2017-01-12T03:13:54.095Z,3.1
2017-01-12T03:14:15.448Z,3.1
2017-01-12T03:14:36.786Z,3
2017-01-12T03:14:58.145Z,3.1
2017-01-12T03:15:19.468Z,3.1
2017-01-12T03:15:40.804Z,3.1
2017-01-12T03:16:02.139Z,3
2017-01-12T03:16:23.488Z,3.1
2017-01-12T03:16:44.829Z,3
2017-01-12T03:17:06.203Z,3.1
2017-01-12T03:17:27.569Z,3
2017-01-12T03:17:48.912Z,3
2017-01-12T03:18:10.250Z,3
2017-01-12T03:18:31.610Z,3.1
2017-01-12T03:18:52.953Z,3
2017-01-12T03:19:14.280Z,3.1
2017-01-12T03:19:35.627Z,3.1
2017-01-12T03:19:56.979Z,3.1
2017-01-12T03:20:18.325Z,3.1
2017-01-12T03:20:39.676Z,3.1
2017-01-12T03:21:01.057Z,3.2
2017-01-12T03:21:22.406Z,3.1
2017-01-12T03:21:43.746Z,3.2
2017-01-12T03:22:05.116Z,3.1
2017-01-12T03:22:26.533Z,3.1
2017-01-12T03:22:47.882Z,3.1
2017-01-12T03:23:09.227Z,3.1
2017-01-12T03:23:30.578Z,3.1
2017-01-12T03:23:51.926Z,3.1
2017-01-12T03:24:13.260Z,3.1
2017-01-12T03:24:34.614Z,3.1
2017-01-12T03:24:55.971Z,3.1
2017-01-12T03:25:17.343Z,3
2017-01-12T03:25:38.694Z,3.1
2017-01-12T03:26:00.071Z,3.1
2017-01-12T03:26:21.416Z,3.2
2017-01-12T03:26:42.766Z,3.1
2017-01-12T03:27:04.109Z,3.1
2017-01-12T03:27:25.494Z,3.1
2017-01-12T03:27:46.845Z,3.2
2017-01-12T03:28:08.201Z,3.2
2017-01-12T03:28:29.566Z,3.2
2017-01-12T03:28:50.954Z,3.2
2017-01-12T03:29:12.297Z,3.2
2017-01-12T03:29:33.677Z,3.1
2017-01-12T03:29:55.000Z,3.1
2017-01-12T03:30:16.342Z,3.1
2017-01-12T03:30:37.704Z,3.1
2017-01-12T03:30:59.044Z,3.1
2017-01-12T03:31:20.404Z,3.2
2017-01-12T03:31:41.753Z,3.1
2017-01-12T03:32:03.106Z,3.1
2017-01-12T03:32:24.465Z,3.1
2017-01-12T03:32:45.974Z,3.1
2017-01-12T03:33:07.331Z,3.2
2017-01-12T03:33:28.661Z,3.2
2017-01-12T03:33:50.000Z,3.2
2017-01-12T03:34:11.337Z,3.2
2017-01-12T03:34:32.664Z,3.2
2017-01-12T03:34:53.976Z,3.2
2017-01-12T03:35:15.321Z,3.2
2017-01-12T03:35:36.658Z,3.2
2017-01-12T03:35:58.012Z,3.1
2017-01-12T03:36:19.366Z,3.1
2017-01-12T03:36:40.732Z,3.2
2017-01-12T03:37:02.078Z,3.2
2017-01-12T03:37:23.412Z,3.1
2017-01-12T03:37:44.787Z,3.2
2017-01-12T03:38:06.134Z,3.2
2017-01-12T03:38:27.477Z,3.2
2017-01-12T03:38:48.811Z,3.2
2017-01-12T03:39:10.142Z,3.1
2017-01-12T03:39:31.491Z,3.2
2017-01-12T03:39:52.815Z,3.2
2017-01-12T03:40:14.150Z,3.2
2017-01-12T03:40:35.499Z,3.3
2017-01-12T03:40:56.864Z,3.3
2017-01-12T03:41:18.211Z,3.2
2017-01-12T03:41:39.554Z,3.2
2017-01-12T03:42:00.906Z,3.2
2017-01-12T03:42:22.260Z,3.3
2017-01-12T03:42:43.592Z,3.2
2017-01-12T03:43:04.929Z,3.2
2017-01-12T03:43:26.267Z,3.2
2017-01-12T03:43:47.598Z,3.2
2017-01-12T03:44:08.928Z,3.2
2017-01-12T03:44:30.272Z,3.2
2017-01-12T03:44:51.606Z,3.2
2017-01-12T03:45:12.952Z,3.2
2017-01-12T03:45:34.297Z,3.2
2017-01-12T03:45:55.632Z,3.2
2017-01-12T03:46:16.962Z,3.2
2017-01-12T03:46:38.300Z,3.2
2017-01-12T03:46:59.642Z,3.2
2017-01-12T03:47:21.011Z,3.1
2017-01-12T03:47:42.363Z,3.2
2017-01-12T03:48:03.694Z,3.1
2017-01-12T03:48:25.021Z,3.2
2017-01-12T03:48:46.380Z,3.2
2017-01-12T03:49:07.714Z,3.2
2017-01-12T03:49:29.049Z,3.2
2017-01-12T03:49:50.382Z,3.2
2017-01-12T03:50:11.724Z,3.2
2017-01-12T03:50:33.053Z,3.1
2017-01-12T03:50:54.410Z,3.1
2017-01-12T03:51:15.755Z,3.2
2017-01-12T03:51:37.112Z,3.2
2017-01-12T03:51:58.455Z,3.1
2017-01-12T03:52:19.799Z,3.2
2017-01-12T03:52:41.131Z,3.2
2017-01-12T03:53:02.481Z,3.2
2017-01-12T03:53:23.809Z,3.1
2017-01-12T03:53:45.194Z,3.1
2017-01-12T03:54:06.545Z,3
2017-01-12T03:54:27.886Z,3.1
2017-01-12T03:54:49.208Z,3
2017-01-12T03:55:10.572Z,3.1
2017-01-12T03:55:31.919Z,3.1
2017-01-12T03:55:53.261Z,3.1
2017-01-12T03:56:14.593Z,3.1
2017-01-12T03:56:35.937Z,3.2
2017-01-12T03:56:57.278Z,3.1
2017-01-12T03:57:18.622Z,3.1
2017-01-12T03:57:39.964Z,3.2
2017-01-12T03:58:01.332Z,3.2
2017-01-12T03:58:22.682Z,3.2
2017-01-12T03:58:44.026Z,3.2
2017-01-12T03:59:05.344Z,3.2
2017-01-12T03:59:26.712Z,3.2
2017-01-12T03:59:48.051Z,3.2
2017-01-12T04:00:09.411Z,3.2
2017-01-12T04:00:30.751Z,3.1
2017-01-12T04:00:52.161Z,3.2
2017-01-12T04:01:13.505Z,3.2
2017-01-12T04:01:34.819Z,3.2
2017-01-12T04:01:56.164Z,3.2
2017-01-12T04:02:17.531Z,3.1
2017-01-12T04:02:38.863Z,3.1
2017-01-12T04:03:00.205Z,3.1
2017-01-12T04:03:21.564Z,3.1
2017-01-12T04:03:42.905Z,3.1
2017-01-12T04:04:04.250Z,3.1
2017-01-12T04:04:25.594Z,3.1
2017-01-12T04:04:46.970Z,3.2
2017-01-12T04:05:08.305Z,3.1
2017-01-12T04:05:29.648Z,3
2017-01-12T04:05:50.994Z,3
2017-01-12T04:06:12.346Z,3
2017-01-12T04:06:33.683Z,3.1
2017-01-12T04:06:55.035Z,3.1
2017-01-12T04:07:16.364Z,3
2017-01-12T04:07:37.694Z,3
2017-01-12T04:07:59.046Z,3.1
2017-01-12T04:08:20.392Z,3.1
2017-01-12T04:08:41.723Z,3
2017-01-12T04:09:03.107Z,3
2017-01-12T04:09:24.431Z,3.1
2017-01-12T04:09:45.772Z,3.1
2017-01-12T04:10:07.119Z,3.1
2017-01-12T04:10:28.432Z,3.1
2017-01-12T04:10:49.759Z,3.1
2017-01-12T04:11:11.091Z,3.1
2017-01-12T04:11:32.440Z,3.1
2017-01-12T04:11:53.780Z,3.1
2017-01-12T04:12:15.122Z,3.1
2017-01-12T04:12:36.463Z,3.1
2017-01-12T04:12:57.793Z,3.1
2017-01-12T04:13:19.163Z,3.2
2017-01-12T04:13:40.518Z,3.1
2017-01-12T04:14:01.867Z,3.2
2017-01-12T04:14:23.212Z,3.2
2017-01-12T04:14:44.550Z,3.2
2017-01-12T04:15:05.886Z,3.2
2017-01-12T04:15:27.248Z,3.1
2017-01-12T04:15:48.592Z,3.2
2017-01-12T04:16:09.968Z,3.2
2017-01-12T04:16:31.316Z,3.2
2017-01-12T04:16:52.657Z,3.3
2017-01-12T04:17:14.004Z,3.2
2017-01-12T04:17:35.325Z,3.2
2017-01-12T04:17:56.672Z,3.2
2017-01-12T04:18:18.009Z,3.3
2017-01-12T04:18:39.371Z,3.2
2017-01-12T04:19:00.717Z,3.1
2017-01-12T04:19:22.046Z,3.2
2017-01-12T04:19:43.393Z,3.1
2017-01-12T04:20:04.741Z,3.1
2017-01-12T04:20:26.062Z,3.2
2017-01-12T04:20:47.418Z,3.1
2017-01-12T04:21:08.781Z,3.1
2017-01-12T04:21:30.156Z,3.1
2017-01-12T04:21:51.500Z,3.2
2017-01-12T04:22:12.850Z,3.1
2017-01-12T04:22:34.180Z,3.1
2017-01-12T04:22:55.527Z,3.1
2017-01-12T04:23:16.871Z,3.2
2017-01-12T04:23:38.228Z,3.1
2017-01-12T04:23:59.578Z,3.2
2017-01-12T04:24:20.919Z,3.2
2017-01-12T04:24:42.241Z,3.2
2017-01-12T04:25:03.583Z,3.1
2017-01-12T04:25:24.932Z,3.2
2017-01-12T04:25:46.285Z,3.1
2017-01-12T04:26:07.638Z,3.2
2017-01-12T04:26:29.010Z,3.2
2017-01-12T04:26:50.369Z,3.2
2017-01-12T04:27:11.711Z,3.2
2017-01-12T04:27:33.049Z,3.2
2017-01-12T04:27:54.389Z,3.1
2017-01-12T04:28:15.731Z,3.2
2017-01-12T04:28:37.059Z,3.2
2017-01-12T04:28:58.419Z,3.2
2017-01-12T04:29:19.760Z,3.2
2017-01-12T04:29:41.089Z,3.2
2017-01-12T04:30:02.427Z,3.2
2017-01-12T04:30:23.778Z,3.2
2017-01-12T04:30:45.109Z,3.2
2017-01-12T04:31:06.474Z,3.2
2017-01-12T04:31:27.829Z,3.2
2017-01-12T04:31:49.155Z,3.2
2017-01-12T04:32:10.488Z,3.2
2017-01-12T04:32:31.842Z,3.2
2017-01-12T04:32:53.191Z,3.2
2017-01-12T04:33:14.532Z,3.1
2017-01-12T04:33:35.873Z,3.2
2017-01-12T04:33:57.223Z,3.1
2017-01-12T04:34:18.560Z,3.1
2017-01-12T04:34:39.933Z,3.2
2017-01-12T04:35:01.260Z,3.2
2017-01-12T04:35:22.593Z,3.2
2017-01-12T04:35:43.993Z,3.3
2017-01-12T04:36:05.339Z,3.4
2017-01-12T04:36:26.694Z,3.3
2017-01-12T04:36:48.047Z,3.4
2017-01-12T04:37:09.393Z,3.3
2017-01-12T04:37:30.743Z,3.4
2017-01-12T04:37:52.100Z,3.3
2017-01-12T04:38:13.452Z,3.3
2017-01-12T04:38:34.804Z,3.2
2017-01-12T04:38:56.136Z,3.3
2017-01-12T04:39:18.115Z,3.3
2017-01-12T04:39:40.845Z,3.2
2017-01-12T04:40:02.287Z,3.2
2017-01-12T04:40:23.629Z,3.2
2017-01-12T04:40:44.962Z,3.3
2017-01-12T04:41:06.285Z,3.3
2017-01-12T04:41:27.625Z,3.3
2017-01-12T04:41:48.976Z,3.4
2017-01-12T04:42:10.328Z,3.3
2017-01-12T04:42:31.683Z,3.4
2017-01-12T04:42:53.017Z,3.3
2017-01-12T04:43:14.383Z,3.3
2017-01-12T04:43:35.753Z,3.3
2017-01-12T04:43:57.102Z,3.3
2017-01-12T04:44:18.428Z,3.3
2017-01-12T04:44:39.776Z,3.3
2017-01-12T04:45:01.120Z,3.4
2017-01-12T04:45:22.451Z,3.4
2017-01-12T04:45:43.805Z,3.5
2017-01-12T04:46:05.134Z,3.5
2017-01-12T04:46:26.458Z,3.5
2017-01-12T04:46:47.809Z,3.4
2017-01-12T04:47:09.133Z,3.4
2017-01-12T04:47:30.463Z,3.4
2017-01-12T04:47:51.785Z,3.4
2017-01-12T04:48:13.125Z,3.4
2017-01-12T04:48:34.474Z,3.4
2017-01-12T04:48:55.820Z,3.4
2017-01-12T04:49:17.165Z,3.4
2017-01-12T04:49:38.475Z,3.4
2017-01-12T04:49:59.813Z,3.4
2017-01-12T04:50:21.172Z,3.4
2017-01-12T04:50:42.546Z,3.5
2017-01-12T04:51:03.891Z,3.5
2017-01-12T04:51:25.233Z,3.4
2017-01-12T04:51:46.571Z,3.4
2017-01-12T04:52:07.930Z,3.5
2017-01-12T04:52:29.272Z,3.4
2017-01-12T04:52:50.646Z,3.4
2017-01-12T04:53:12.082Z,3.5
2017-01-12T04:53:33.423Z,3.5
2017-01-12T04:53:54.753Z,3.5
2017-01-12T04:54:16.098Z,3.4
2017-01-12T04:54:37.417Z,3.4
2017-01-12T04:54:58.762Z,3.5
2017-01-12T04:55:20.104Z,3.4